createdAt,value
2023-08-29T00:01:14.163Z,5.57
2023-08-29T00:03:22.613Z,4.78
2023-08-29T00:05:27.873Z,4.38
2023-08-29T00:07:32.977Z,6.25
2023-08-29T00:09:38.314Z,3.95
2023-08-29T00:11:43.289Z,5.43
2023-08-29T00:13:48.401Z,3.83
2023-08-29T00:15:56.705Z,4.32
2023-08-29T00:17:59.167Z,5.55
2023-08-29T00:20:07.779Z,4.35
2023-08-29T00:22:10.348Z,6.75
2023-08-29T00:24:17.957Z,6.47
2023-08-29T00:26:22.943Z,5.65
2023-08-29T00:28:28.344Z,5.25
2023-08-29T00:30:37.005Z,5.93
2023-08-29T00:32:42.486Z,4.95
2023-08-29T00:34:47.423Z,3.95
2023-08-29T00:36:58.508Z,6.13
2023-08-29T00:39:05.020Z,3.63
2023-08-29T00:41:12.260Z,5.10
2023-08-29T00:43:17.279Z,5.75
2023-08-29T00:45:22.227Z,4.35
2023-08-29T00:47:27.256Z,6.15
2023-08-29T00:49:32.487Z,7.22
2023-08-29T00:51:37.488Z,4.30
2023-08-29T00:53:44.977Z,6.53
2023-08-29T00:55:51.160Z,6.25
2023-08-29T00:57:57.632Z,6.20
2023-08-29T01:00:02.877Z,6.78
2023-08-29T01:02:08.999Z,4.80
2023-08-29T01:04:11.529Z,4.78
2023-08-29T01:06:17.978Z,5.45
2023-08-29T01:08:24.900Z,6.03
2023-08-29T01:10:40.399Z,5.55
2023-08-29T01:13:00.181Z,5.30
2023-08-29T01:15:12.651Z,5.97
2023-08-29T01:17:27.099Z,4.60
2023-08-29T01:19:33.001Z,5.78
2023-08-29T01:21:48.423Z,4.35
2023-08-29T01:24:08.348Z,6.63
2023-08-29T01:26:17.837Z,7.18
2023-08-29T01:28:24.862Z,4.85
2023-08-29T01:30:30.613Z,10.75
2023-08-29T01:32:36.345Z,5.82
2023-08-29T01:34:43.541Z,7.07
2023-08-29T01:36:49.397Z,3.55
2023-08-29T01:38:56.925Z,5.55
2023-08-29T01:41:01.853Z,5.80
2023-08-29T01:43:09.566Z,7.30
2023-08-29T01:45:12.079Z,5.85
2023-08-29T01:47:20.215Z,6.78
2023-08-29T01:49:28.610Z,5.05
2023-08-29T01:51:34.062Z,5.53
2023-08-29T01:53:40.460Z,5.10
2023-08-29T01:55:48.219Z,5.53
2023-08-29T01:57:58.910Z,5.35
2023-08-29T02:00:06.897Z,5.32
2023-08-29T02:02:11.988Z,5.15
2023-08-29T02:04:17.068Z,4.78
2023-08-29T02:06:19.638Z,6.03
2023-08-29T02:08:24.897Z,5.65
2023-08-29T02:10:32.205Z,6.15
2023-08-29T02:12:37.199Z,4.20
2023-08-29T02:14:45.213Z,5.82
2023-08-29T02:16:52.945Z,4.05
2023-08-29T02:18:57.914Z,5.55
2023-08-29T02:21:00.575Z,6.72
2023-08-29T02:23:05.824Z,6.32
2023-08-29T02:25:12.120Z,5.90
2023-08-29T02:27:17.212Z,7.50
2023-08-29T02:29:22.063Z,6.25
2023-08-29T02:31:27.070Z,6.18
2023-08-29T02:33:39.816Z,5.40
2023-08-29T02:35:44.922Z,6.95
2023-08-29T02:37:49.879Z,6.28
2023-08-29T02:39:55.466Z,5.75
2023-08-29T02:42:01.338Z,4.95
2023-08-29T02:44:07.197Z,8.18
2023-08-29T02:46:12.592Z,4.63
2023-08-29T02:48:14.944Z,6.80
2023-08-29T02:50:22.706Z,4.60
2023-08-29T02:52:27.837Z,7.07
2023-08-29T02:54:32.814Z,4.85
2023-08-29T02:56:37.620Z,10.02
2023-08-29T02:58:46.254Z,7.82
2023-08-29T03:00:51.609Z,4.80
2023-08-29T03:02:59.203Z,5.05
2023-08-29T03:05:04.378Z,8.07
2023-08-29T03:07:11.751Z,6.82
2023-08-29T03:09:16.497Z,6.50
2023-08-29T03:11:21.906Z,6.05
2023-08-29T03:13:28.330Z,12.43
2023-08-29T03:15:35.676Z,5.18
2023-08-29T03:17:40.812Z,8.05
2023-08-29T03:20:51.209Z,5.60
2023-08-29T03:22:44.403Z,6.70
2023-08-29T03:24:47.472Z,8.82
2023-08-29T03:26:52.834Z,7.30
2023-08-29T03:29:01.289Z,7.40
2023-08-29T03:31:16.047Z,6.22
2023-08-29T03:33:21.213Z,7.30
2023-08-29T03:35:28.253Z,8.68
2023-08-29T03:37:33.128Z,7.22
2023-08-29T03:39:40.552Z,6.80
2023-08-29T03:41:45.598Z,8.30
2023-08-29T03:43:50.867Z,10.75
2023-08-29T03:46:01.010Z,8.23
2023-08-29T03:48:12.688Z,8.52
2023-08-29T03:50:22.618Z,8.77
2023-08-29T03:52:31.955Z,9.43
2023-08-29T03:54:36.906Z,7.80
2023-08-29T03:56:44.856Z,7.65
2023-08-29T03:58:50.773Z,10.07
2023-08-29T04:00:57.295Z,6.78
2023-08-29T04:03:02.172Z,10.55
2023-08-29T04:05:16.399Z,8.35
2023-08-29T04:07:19.572Z,7.20
2023-08-29T04:09:27.096Z,8.75
2023-08-29T04:11:32.032Z,10.70
2023-08-29T04:13:39.558Z,10.48
2023-08-29T04:15:45.040Z,8.25
2023-08-29T04:17:50.341Z,8.00
2023-08-29T04:19:58.682Z,8.18
2023-08-29T04:22:04.400Z,8.85
2023-08-29T04:24:10.323Z,8.48
2023-08-29T04:26:15.260Z,8.05
2023-08-29T04:28:21.746Z,6.82
2023-08-29T04:30:29.521Z,10.77
2023-08-29T04:32:38.747Z,10.13
2023-08-29T04:34:44.096Z,9.75
2023-08-29T04:36:49.451Z,9.82
2023-08-29T04:38:56.861Z,10.60
2023-08-29T04:41:01.949Z,7.72
2023-08-29T04:43:10.123Z,9.02
2023-08-29T04:45:15.816Z,9.18
2023-08-29T04:47:23.438Z,9.13
2023-08-29T04:49:31.992Z,8.38
2023-08-29T04:51:37.348Z,10.60
2023-08-29T04:53:42.566Z,11.63
2023-08-29T04:55:44.894Z,10.85
2023-08-29T04:57:50.405Z,8.93
2023-08-29T04:59:59.087Z,8.13
2023-08-29T05:02:04.128Z,10.52
2023-08-29T05:04:11.920Z,11.25
2023-08-29T05:06:16.980Z,9.75
2023-08-29T05:08:22.436Z,9.48
2023-08-29T05:10:27.693Z,10.38
2023-08-29T05:12:32.928Z,10.75
2023-08-29T05:14:35.462Z,8.32
2023-08-29T05:16:40.613Z,9.32
2023-08-29T05:18:45.646Z,8.68
2023-08-29T05:20:55.610Z,8.75
2023-08-29T05:23:04.025Z,7.30
2023-08-29T05:25:12.590Z,9.43
2023-08-29T05:27:17.745Z,8.70
2023-08-29T05:29:22.880Z,8.18
2023-08-29T05:31:27.994Z,10.80
2023-08-29T05:33:33.690Z,9.15
2023-08-29T05:35:38.792Z,8.63
2023-08-29T05:37:46.931Z,8.35
2023-08-29T05:39:52.549Z,5.72
2023-08-29T05:42:00.223Z,7.63
2023-08-29T05:44:02.872Z,10.18
2023-08-29T05:46:09.971Z,8.85
2023-08-29T05:48:14.971Z,8.55
2023-08-29T05:50:20.230Z,7.78
2023-08-29T05:52:26.540Z,8.98
2023-08-29T05:54:37.789Z,8.48
2023-08-29T05:56:42.855Z,11.15
2023-08-29T05:58:47.882Z,7.25
2023-08-29T06:00:53.155Z,8.02
2023-08-29T06:03:00.001Z,7.53
2023-08-29T06:05:07.682Z,8.68
2023-08-29T06:07:12.791Z,7.38
2023-08-29T06:09:17.840Z,9.35
2023-08-29T06:11:27.358Z,7.88
2023-08-29T06:13:32.325Z,7.57
2023-08-29T06:15:37.236Z,8.55
2023-08-29T06:17:42.378Z,8.52
2023-08-29T06:19:47.398Z,7.20
2023-08-29T06:21:52.665Z,13.07
2023-08-29T06:23:57.740Z,10.20
2023-08-29T06:26:04.568Z,8.18
2023-08-29T06:28:12.299Z,10.00
2023-08-29T06:30:18.070Z,8.07
2023-08-29T06:32:22.917Z,9.35
2023-08-29T06:34:34.160Z,14.40
2023-08-29T06:36:39.224Z,11.98
2023-08-29T06:38:44.375Z,9.73
2023-08-29T06:40:49.715Z,9.05
2023-08-29T06:42:58.444Z,9.57
2023-08-29T06:45:10.025Z,10.77
2023-08-29T06:47:15.284Z,11.38
2023-08-29T06:49:20.290Z,13.13
2023-08-29T06:51:27.777Z,9.18
2023-08-29T06:53:32.941Z,9.52
2023-08-29T06:55:38.860Z,11.57
2023-08-29T06:57:44.237Z,11.25
2023-08-29T06:59:49.538Z,13.18
2023-08-29T07:01:57.240Z,11.20
2023-08-29T07:04:02.409Z,8.27
2023-08-29T07:06:08.170Z,10.55
2023-08-29T07:08:13.772Z,13.43
2023-08-29T07:10:18.931Z,8.52
2023-08-29T07:12:26.081Z,9.35
2023-08-29T07:14:34.484Z,9.98
2023-08-29T07:16:39.592Z,10.75
2023-08-29T07:18:47.739Z,13.30
2023-08-29T07:20:53.176Z,11.95
2023-08-29T07:23:00.861Z,9.65
2023-08-29T07:25:07.043Z,9.50
2023-08-29T07:27:14.020Z,8.65
2023-08-29T07:29:20.805Z,10.73
2023-08-29T07:31:26.220Z,9.80
2023-08-29T07:33:31.753Z,7.88
2023-08-29T07:35:40.373Z,8.85
2023-08-29T07:37:45.637Z,8.20
2023-08-29T07:39:51.108Z,8.40
2023-08-29T07:41:56.282Z,11.25
2023-08-29T07:44:01.254Z,11.75
2023-08-29T07:46:10.317Z,7.75
2023-08-29T07:48:15.436Z,10.48
2023-08-29T07:50:20.456Z,8.10
2023-08-29T07:52:30.556Z,7.97
2023-08-29T07:54:35.518Z,7.85
2023-08-29T07:56:37.891Z,8.45
2023-08-29T07:58:42.810Z,7.35
2023-08-29T08:00:47.813Z,9.30
2023-08-29T08:02:53.033Z,6.18
2023-08-29T08:05:00.852Z,6.20
2023-08-29T08:07:05.897Z,7.32
2023-08-29T08:09:14.348Z,6.57
2023-08-29T08:11:19.388Z,8.68
2023-08-29T08:13:22.484Z,6.05
2023-08-29T08:15:27.597Z,4.88
2023-08-29T08:17:35.835Z,6.13
2023-08-29T08:19:41.106Z,4.63
2023-08-29T08:21:46.674Z,4.95
2023-08-29T08:23:53.343Z,6.13
2023-08-29T08:26:03.886Z,5.20
2023-08-29T08:28:09.966Z,4.25
2023-08-29T08:30:15.453Z,5.03
2023-08-29T08:32:21.232Z,5.20
2023-08-29T08:34:26.296Z,5.00
2023-08-29T08:36:32.288Z,4.47
2023-08-29T08:38:37.290Z,4.32
2023-08-29T08:40:44.069Z,5.35
2023-08-29T08:42:57.873Z,4.60
2023-08-29T08:45:06.274Z,5.53
2023-08-29T08:47:15.505Z,6.93
2023-08-29T08:49:21.768Z,6.47
2023-08-29T08:51:31.856Z,8.25
2023-08-29T08:53:37.791Z,4.80
2023-08-29T08:55:43.002Z,6.15
2023-08-29T08:57:48.090Z,7.13
2023-08-29T08:59:58.936Z,5.78
2023-08-29T09:02:04.172Z,7.40
2023-08-29T09:04:09.694Z,9.52
2023-08-29T09:06:15.086Z,7.57
2023-08-29T09:08:17.576Z,5.15
2023-08-29T09:10:23.191Z,5.93
2023-08-29T09:12:31.658Z,7.10
2023-08-29T09:14:40.211Z,5.20
2023-08-29T09:16:48.328Z,6.38
2023-08-29T09:18:57.220Z,5.32
2023-08-29T09:21:03.258Z,5.95
2023-08-29T09:23:24.508Z,7.45
2023-08-29T09:25:32.521Z,5.07
2023-08-29T09:27:43.819Z,4.68
2023-08-29T09:29:48.988Z,6.35
2023-08-29T09:31:59.047Z,6.60
2023-08-29T09:34:05.731Z,4.43
2023-08-29T09:36:11.633Z,5.32
2023-08-29T09:38:17.221Z,3.60
2023-08-29T09:42:31.877Z,4.60
2023-08-29T09:44:39.927Z,3.33
2023-08-29T09:46:48.095Z,2.88
2023-08-29T09:49:01.380Z,3.47
2023-08-29T09:51:07.178Z,1.77
2023-08-29T09:53:12.543Z,1.50
2023-08-29T09:55:18.458Z,1.52
2023-08-29T09:57:26.261Z,3.47
2023-08-29T09:59:33.658Z,1.98
2023-08-29T10:01:41.051Z,4.65
2023-08-29T10:03:47.930Z,3.05
2023-08-29T10:06:00.153Z,2.58
2023-08-29T10:08:31.195Z,1.98
2023-08-29T10:10:36.330Z,2.65
2023-08-29T10:12:42.089Z,3.78
2023-08-29T10:14:45.553Z,2.85
2023-08-29T10:16:53.789Z,2.53
2023-08-29T10:19:02.768Z,2.97
2023-08-29T10:21:11.110Z,2.55
2023-08-29T10:23:17.423Z,2.33
2023-08-29T10:25:25.523Z,2.95
2023-08-29T10:27:30.601Z,2.47
2023-08-29T10:29:36.332Z,2.85
2023-08-29T10:31:42.577Z,3.25
2023-08-29T10:33:52.372Z,2.28
2023-08-29T10:35:57.281Z,1.65
2023-08-29T10:38:14.589Z,2.05
2023-08-29T10:40:20.746Z,2.63
2023-08-29T10:42:51.310Z,2.65
2023-08-29T10:44:56.693Z,5.53
2023-08-29T10:47:17.828Z,3.83
2023-08-29T10:49:25.787Z,1.92
2023-08-29T10:51:30.708Z,2.97
2023-08-29T10:53:43.702Z,2.03
2023-08-29T10:56:02.795Z,3.28
2023-08-29T10:58:36.178Z,2.72
2023-08-29T11:00:58.337Z,1.63
2023-08-29T11:03:06.161Z,1.63
2023-08-29T11:05:18.454Z,2.17
2023-08-29T11:07:29.075Z,1.65
2023-08-29T11:09:45.531Z,1.60
2023-08-29T11:12:09.920Z,2.55
2023-08-29T11:14:15.586Z,2.60
2023-08-29T11:16:20.957Z,2.38
2023-08-29T11:18:28.202Z,3.08
2023-08-29T11:23:06.949Z,1.80
2023-08-29T11:25:14.779Z,2.25
2023-08-29T11:27:22.471Z,2.72
2023-08-29T11:29:32.098Z,2.88
2023-08-29T11:31:44.496Z,2.70
2023-08-29T11:33:50.981Z,2.30
2023-08-29T11:35:57.980Z,4.70
2023-08-29T11:38:00.442Z,3.92
2023-08-29T11:43:20.858Z,3.25
2023-08-29T11:45:44.069Z,4.93
2023-08-29T11:47:18.360Z,4.28
2023-08-29T11:49:20.637Z,8.50
2023-08-29T11:51:28.781Z,4.25
2023-08-29T11:53:38.005Z,5.90
2023-08-29T11:55:42.948Z,6.68
2023-08-29T11:57:54.214Z,5.25
2023-08-29T12:00:02.097Z,5.15
2023-08-29T12:02:07.164Z,4.90
2023-08-29T12:04:12.101Z,7.47
2023-08-29T12:06:17.608Z,7.35
2023-08-29T12:08:37.459Z,5.47
2023-08-29T12:10:56.560Z,5.20
2023-08-29T12:13:14.521Z,5.32
2023-08-29T12:15:30.757Z,6.97
2023-08-29T12:17:45.753Z,5.18
2023-08-29T12:19:51.119Z,6.65
2023-08-29T12:22:00.818Z,3.03
2023-08-29T12:24:10.989Z,4.93
2023-08-29T12:26:16.929Z,4.85
2023-08-29T12:28:21.911Z,5.85
2023-08-29T12:30:27.009Z,5.28
2023-08-29T12:32:33.297Z,4.60
2023-08-29T12:34:35.616Z,4.63
2023-08-29T12:36:41.397Z,3.80
2023-08-29T12:38:46.374Z,4.72
2023-08-29T12:40:51.988Z,6.28
2023-08-29T12:42:57.701Z,4.22
2023-08-29T12:45:05.649Z,3.63
2023-08-29T12:47:10.726Z,6.20
2023-08-29T12:49:15.734Z,3.38
2023-08-29T12:51:20.571Z,4.30
2023-08-29T12:53:28.783Z,4.57
2023-08-29T12:55:34.345Z,6.85
2023-08-29T12:57:39.401Z,4.60
2023-08-29T12:59:44.629Z,5.43
2023-08-29T13:01:52.269Z,4.55
2023-08-29T13:04:00.303Z,3.70
2023-08-29T13:06:05.416Z,5.28
2023-08-29T13:08:11.200Z,4.32
2023-08-29T13:10:18.018Z,4.95
2023-08-29T13:12:27.752Z,5.80
2023-08-29T13:14:38.600Z,6.55
2023-08-29T13:16:44.274Z,4.55
2023-08-29T13:18:54.969Z,5.25
2023-08-29T13:21:00.395Z,4.82
2023-08-29T13:23:05.810Z,3.92
2023-08-29T13:25:13.662Z,4.57
2023-08-29T13:27:22.584Z,7.45
2023-08-29T13:29:28.272Z,5.53
2023-08-29T13:31:33.503Z,4.43
2023-08-29T13:33:39.056Z,4.07
2023-08-29T13:35:49.709Z,5.80
2023-08-29T13:37:55.265Z,3.30
2023-08-29T13:40:00.636Z,4.40
2023-08-29T13:42:02.922Z,6.57
2023-08-29T13:44:08.472Z,5.20
2023-08-29T13:46:14.710Z,3.42
2023-08-29T13:48:19.903Z,4.68
2023-08-29T13:50:26.664Z,5.85
2023-08-29T13:52:34.556Z,4.80
2023-08-29T13:54:40.075Z,6.18
2023-08-29T13:56:45.673Z,4.72
2023-08-29T13:58:51.134Z,3.22
2023-08-29T14:00:57.171Z,3.47
2023-08-29T14:03:02.178Z,4.53
2023-08-29T14:05:10.682Z,3.53
2023-08-29T14:07:17.269Z,2.78
2023-08-29T14:09:27.231Z,4.72
2023-08-29T14:11:40.941Z,4.68
2023-08-29T14:13:45.843Z,6.80
2023-08-29T14:15:51.011Z,5.72
2023-08-29T14:17:58.657Z,4.63
2023-08-29T14:20:06.480Z,5.47
2023-08-29T14:22:11.461Z,6.35
2023-08-29T14:24:16.490Z,4.30
2023-08-29T14:26:24.063Z,4.40
2023-08-29T14:28:32.222Z,5.65
2023-08-29T14:30:37.334Z,5.00
2023-08-29T14:32:42.732Z,5.50
2023-08-29T14:34:47.769Z,7.13
2023-08-29T14:36:52.891Z,6.68
2023-08-29T14:39:01.750Z,4.85
2023-08-29T14:41:10.629Z,4.05
2023-08-29T14:43:18.229Z,5.22
2023-08-29T14:45:23.234Z,4.93
2023-08-29T14:47:28.663Z,5.80
2023-08-29T14:49:33.839Z,7.10
2023-08-29T14:51:39.827Z,7.05
2023-08-29T14:53:42.384Z,6.00
2023-08-29T14:57:52.247Z,6.43
2023-08-29T15:00:00.114Z,4.70
2023-08-29T15:02:05.634Z,7.38
2023-08-29T15:04:10.599Z,4.88
2023-08-29T15:06:16.775Z,4.07
2023-08-29T15:08:25.214Z,5.05
2023-08-29T15:10:31.926Z,4.65
2023-08-29T15:12:36.916Z,9.95
2023-08-29T15:14:39.335Z,6.55
2023-08-29T15:16:48.407Z,4.53
2023-08-29T15:18:55.172Z,6.82
2023-08-29T15:21:00.045Z,5.43
2023-08-29T15:23:06.883Z,5.85
2023-08-29T15:25:15.227Z,7.00
2023-08-29T15:27:20.279Z,6.80
2023-08-29T15:29:25.499Z,6.18
2023-08-29T15:31:30.659Z,8.27
2023-08-29T15:33:40.146Z,8.00
2023-08-29T15:35:49.697Z,9.45
2023-08-29T15:37:52.089Z,6.50
2023-08-29T15:39:57.506Z,4.85
2023-08-29T15:42:00.105Z,5.72
2023-08-29T15:46:10.670Z,5.18
2023-08-29T15:48:13.056Z,6.60
2023-08-29T15:50:20.767Z,5.57
2023-08-29T15:52:25.872Z,7.75
2023-08-29T15:54:30.836Z,6.13
2023-08-29T15:56:35.759Z,6.68
2023-08-29T15:58:40.928Z,4.40
2023-08-29T16:00:46.112Z,8.02
2023-08-29T16:02:53.458Z,6.88
2023-08-29T16:05:02.545Z,9.32
2023-08-29T16:07:10.686Z,5.90
2023-08-29T16:09:16.238Z,5.85
2023-08-29T16:11:21.403Z,5.00
2023-08-29T16:13:33.943Z,9.85
2023-08-29T16:15:39.321Z,8.85
2023-08-29T16:17:44.504Z,6.10
2023-08-29T16:19:49.616Z,9.70
2023-08-29T16:21:56.971Z,9.23
2023-08-29T16:24:04.797Z,8.27
2023-08-29T16:26:23.408Z,8.18
2023-08-29T16:28:32.432Z,9.07
2023-08-29T16:30:35.432Z,6.10
2023-08-29T16:32:46.642Z,10.95
2023-08-29T16:34:52.148Z,11.43
2023-08-29T16:37:00.058Z,8.48
2023-08-29T16:39:10.927Z,7.43
2023-08-29T16:41:16.252Z,7.57
2023-08-29T16:43:26.922Z,6.97
2023-08-29T16:45:36.091Z,7.93
2023-08-29T16:47:41.292Z,8.00
2023-08-29T16:50:04.948Z,9.20
2023-08-29T16:52:10.360Z,7.35
2023-08-29T16:54:18.337Z,6.28
2023-08-29T16:56:23.500Z,8.93
2023-08-29T16:58:42.998Z,10.20
2023-08-29T17:00:58.564Z,7.72
2023-08-29T17:03:11.556Z,10.15
2023-08-29T17:05:21.647Z,7.43
2023-08-29T17:07:35.666Z,5.35
2023-08-29T17:09:48.976Z,8.38
2023-08-29T17:11:54.231Z,7.90
2023-08-29T17:14:04.490Z,7.88
2023-08-29T17:16:11.307Z,7.55
2023-08-29T17:18:17.084Z,8.10
2023-08-29T17:20:23.436Z,6.43
2023-08-29T17:22:29.378Z,6.85
2023-08-29T17:24:35.000Z,8.18
2023-08-29T17:26:43.156Z,6.38
2023-08-29T17:28:48.198Z,9.52
2023-08-29T17:31:02.076Z,5.85
2023-08-29T17:33:12.397Z,6.43
2023-08-29T17:35:41.275Z,8.95
2023-08-29T17:37:46.411Z,6.97
2023-08-29T17:39:52.203Z,6.40
2023-08-29T17:42:03.420Z,8.43
2023-08-29T17:44:08.909Z,7.80
2023-08-29T17:46:14.009Z,7.00
2023-08-29T17:48:18.901Z,9.85
2023-08-29T17:50:40.406Z,9.30
2023-08-29T17:52:52.725Z,6.80
2023-08-29T17:54:57.534Z,10.70
2023-08-29T17:57:05.166Z,8.13
2023-08-29T17:59:11.488Z,6.35
2023-08-29T18:01:13.889Z,7.22
2023-08-29T18:03:19.347Z,7.60
2023-08-29T18:05:25.474Z,9.27
2023-08-29T18:07:30.761Z,8.88
2023-08-29T18:09:35.847Z,10.10
2023-08-29T18:11:40.868Z,8.80
2023-08-29T18:13:48.578Z,10.13
2023-08-29T18:15:57.027Z,10.18
2023-08-29T18:18:03.419Z,8.63
2023-08-29T18:20:10.432Z,7.25
2023-08-29T18:22:13.121Z,8.32
2023-08-29T18:26:23.161Z,12.05
2023-08-29T18:28:32.643Z,9.23
2023-08-29T18:30:40.637Z,11.23
2023-08-29T18:32:49.096Z,14.60
2023-08-29T18:34:54.242Z,6.60
2023-08-29T18:37:01.497Z,9.77
2023-08-29T18:39:09.451Z,6.78
2023-08-29T18:41:14.461Z,8.30
2023-08-29T18:43:19.591Z,7.53
2023-08-29T18:45:25.000Z,6.55
2023-08-29T18:47:32.779Z,7.88
2023-08-29T18:49:37.676Z,9.68
2023-08-29T18:51:42.737Z,6.18
2023-08-29T18:53:47.750Z,5.82
2023-08-29T18:55:53.153Z,7.53
2023-08-29T18:57:58.264Z,11.45
2023-08-29T19:00:03.459Z,11.23
2023-08-29T19:02:08.586Z,9.05
2023-08-29T19:04:19.095Z,6.20
2023-08-29T19:06:24.208Z,8.05
2023-08-29T19:08:32.157Z,9.43
2023-08-29T19:10:37.356Z,7.55
2023-08-29T19:12:42.376Z,6.72
2023-08-29T19:14:49.758Z,6.15
2023-08-29T19:16:57.652Z,5.13
2023-08-29T19:19:05.294Z,5.05
2023-08-29T19:21:13.461Z,3.30
2023-08-29T19:23:18.377Z,6.72
2023-08-29T19:25:25.135Z,7.53
2023-08-29T19:27:32.052Z,6.20
2023-08-29T19:29:37.288Z,7.95
2023-08-29T19:31:43.104Z,8.35
2023-08-29T19:33:48.186Z,8.93
2023-08-29T19:35:55.329Z,8.32
2023-08-29T19:38:03.096Z,7.35
2023-08-29T19:40:09.220Z,8.60
2023-08-29T19:42:14.122Z,5.55
2023-08-29T19:44:19.849Z,8.02
2023-08-29T19:46:25.280Z,8.27
2023-08-29T19:48:31.049Z,6.07
2023-08-29T19:50:36.322Z,5.03
2023-08-29T19:52:42.552Z,8.68
2023-08-29T19:54:50.324Z,8.10
2023-08-29T19:56:57.185Z,3.90
2023-08-29T19:59:04.545Z,6.28
2023-08-29T20:01:10.005Z,6.07
2023-08-29T20:03:15.072Z,5.70
2023-08-29T20:05:20.556Z,9.60
2023-08-29T20:07:26.972Z,4.47
2023-08-29T20:09:34.609Z,8.00
2023-08-29T20:11:44.855Z,8.63
2023-08-29T20:13:50.794Z,9.45
2023-08-29T20:15:58.872Z,6.68
2023-08-29T20:18:04.003Z,9.82
2023-08-29T20:20:11.617Z,8.32
2023-08-29T20:22:16.440Z,11.73
2023-08-29T20:24:25.155Z,8.38
2023-08-29T20:26:28.240Z,7.57
2023-08-29T20:28:35.941Z,6.97
2023-08-29T20:30:41.954Z,9.18
2023-08-29T20:32:50.482Z,7.10
2023-08-29T20:34:56.526Z,9.98
2023-08-29T20:37:02.228Z,7.65
2023-08-29T20:39:11.391Z,6.80
2023-08-29T20:41:17.822Z,6.93
2023-08-29T20:43:23.587Z,8.05
2023-08-29T20:45:35.991Z,7.53
2023-08-29T20:47:46.508Z,9.38
2023-08-29T20:49:53.008Z,10.75
2023-08-29T20:52:12.080Z,7.13
2023-08-29T20:54:17.683Z,5.72
2023-08-29T20:56:27.288Z,7.30
2023-08-29T20:59:15.815Z,6.88
2023-08-29T21:01:28.114Z,6.95
2023-08-29T21:03:36.970Z,8.13
2023-08-29T21:05:44.720Z,8.60
2023-08-29T21:07:51.803Z,7.47
2023-08-29T21:09:57.502Z,10.00
2023-08-29T21:12:03.495Z,10.82
2023-08-29T21:14:09.748Z,10.25
2023-08-29T21:16:20.358Z,8.00
2023-08-29T21:18:32.617Z,8.30
2023-08-29T21:20:38.586Z,7.25
2023-08-29T21:22:58.243Z,8.50
2023-08-29T21:25:07.422Z,9.35
2023-08-29T21:27:16.414Z,7.68
2023-08-29T21:29:18.693Z,8.18
2023-08-29T21:31:28.145Z,7.45
2023-08-29T21:33:36.407Z,6.55
2023-08-29T21:35:51.314Z,7.45
2023-08-29T21:37:56.530Z,7.45
2023-08-29T21:40:01.787Z,5.90
2023-08-29T21:42:07.654Z,6.82
2023-08-29T21:44:14.316Z,9.50
2023-08-29T21:46:20.303Z,9.77
2023-08-29T21:48:30.695Z,7.78
2023-08-29T21:50:46.495Z,8.50
2023-08-29T21:52:55.614Z,7.50
2023-08-29T21:55:03.858Z,8.90
2023-08-29T21:57:12.320Z,9.85
2023-08-29T21:59:18.291Z,7.22
2023-08-29T22:03:43.404Z,5.82
2023-08-29T22:05:58.087Z,8.38
2023-08-29T22:08:33.809Z,10.07
2023-08-29T22:13:15.421Z,7.07
2023-08-29T22:15:40.304Z,9.82
2023-08-29T22:18:35.068Z,8.68
2023-08-29T22:23:33.856Z,10.00
2023-08-29T22:26:06.072Z,11.75
2023-08-29T22:28:12.076Z,10.05
2023-08-29T22:30:37.912Z,9.40
2023-08-29T22:32:47.200Z,9.05
2023-08-29T22:35:19.426Z,11.45
2023-08-29T22:37:28.917Z,10.77
2023-08-29T22:42:38.992Z,11.23
2023-08-29T22:45:05.403Z,11.90
2023-08-29T22:48:17.408Z,12.57
2023-08-29T22:50:27.483Z,10.93
2023-08-29T22:52:33.991Z,10.90
2023-08-29T22:54:43.155Z,10.55
2023-08-29T22:57:01.503Z,10.43
2023-08-29T22:59:07.343Z,12.40
2023-08-29T23:01:13.856Z,11.77
2023-08-29T23:03:19.381Z,14.73
2023-08-29T23:05:28.607Z,10.85
2023-08-29T23:07:37.333Z,11.65
2023-08-29T23:09:45.993Z,11.63
2023-08-29T23:11:55.347Z,10.02
2023-08-29T23:14:02.337Z,13.13
2023-08-29T23:16:09.294Z,12.82
2023-08-29T23:18:21.764Z,15.57
2023-08-29T23:20:58.903Z,13.75
2023-08-29T23:23:15.989Z,10.45
2023-08-29T23:27:08.638Z,13.13
2023-08-29T23:29:50.336Z,11.40
2023-08-29T23:31:33.748Z,12.65
2023-08-29T23:33:52.177Z,11.90
2023-08-29T23:36:04.458Z,16.20
2023-08-29T23:38:10.556Z,16.02
2023-08-29T23:40:51.145Z,13.77
2023-08-29T23:43:01.749Z,12.82
2023-08-29T23:45:10.056Z,14.77
2023-08-29T23:47:15.926Z,14.55
2023-08-29T23:49:22.784Z,14.30
2023-08-29T23:51:32.954Z,14.88
2023-08-29T23:53:45.252Z,12.48
2023-08-29T23:55:59.871Z,14.70
2023-08-29T23:58:05.525Z,13.85
